createdAt,value
2022-12-19T00:01:32.196Z,101734.66
2022-12-19T00:04:01.149Z,101744.19
2022-12-19T00:06:29.291Z,101728.47
2022-12-19T00:08:58.808Z,101736.34
2022-12-19T00:11:26.155Z,101732.78
2022-12-19T00:13:53.075Z,101758.03
2022-12-19T00:16:21.974Z,101744.13
2022-12-19T00:18:49.750Z,101743.22
2022-12-19T00:21:18.424Z,101740.63
2022-12-19T00:23:45.643Z,101747.63
2022-12-19T00:26:14.118Z,101744.13
2022-12-19T00:28:41.812Z,101731.09
2022-12-19T00:31:09.045Z,101725.88
2022-12-19T00:33:36.596Z,101722.38
2022-12-19T00:36:35.493Z,101733.69
2022-12-19T00:39:07.814Z,101718.94
2022-12-19T00:41:37.163Z,101719.81
2022-12-19T00:44:07.151Z,101725.94
2022-12-19T00:46:34.935Z,101703.28
2022-12-19T00:49:02.064Z,101696.28
2022-12-19T00:51:32.412Z,101683.28
2022-12-19T00:53:59.527Z,101715.53
2022-12-19T00:56:37.292Z,101726.84
2022-12-19T00:59:06.749Z,101731.25
2022-12-19T01:01:39.457Z,101722.50
2022-12-19T01:06:54.629Z,101711.19
2022-12-19T01:09:31.868Z,101718.19
2022-12-19T01:12:16.926Z,101722.50
2022-12-19T01:14:43.539Z,101707.69
2022-12-19T01:17:10.226Z,101700.78
2022-12-19T01:19:41.878Z,101694.63
2022-12-19T01:22:10.605Z,101679.84
2022-12-19T01:24:37.413Z,101677.31
2022-12-19T01:27:03.994Z,101675.50
2022-12-19T01:29:32.756Z,101685.88
2022-12-19T01:32:01.059Z,101680.69
2022-12-19T01:34:30.680Z,101671.97
2022-12-19T01:36:57.337Z,101683.25
2022-12-19T01:39:23.803Z,101689.47
2022-12-19T01:41:53.314Z,101704.19
2022-12-19T01:44:19.747Z,101696.34
2022-12-19T01:46:48.888Z,101687.69
2022-12-19T01:49:31.197Z,101679.84
2022-12-19T01:52:05.388Z,101666.84
2022-12-19T01:54:35.716Z,101658.97
2022-12-19T01:57:06.352Z,101645.06
2022-12-19T01:59:39.187Z,101660.75
2022-12-19T02:02:11.626Z,101656.44
2022-12-19T02:04:40.618Z,101654.75
2022-12-19T02:07:15.945Z,101666.94
2022-12-19T02:09:46.015Z,101660.84
2022-12-19T02:12:13.946Z,101653.84
2022-12-19T02:14:41.918Z,101639.03
2022-12-19T02:17:52.507Z,101649.56
2022-12-19T02:20:38.172Z,101638.28
2022-12-19T02:23:26.199Z,101631.22
2022-12-19T02:25:59.218Z,101616.44
2022-12-19T02:28:50.214Z,101618.25
2022-12-19T02:31:23.847Z,101608.66
2022-12-19T02:34:01.489Z,101615.66
2022-12-19T02:36:41.983Z,101621.84
2022-12-19T02:39:17.833Z,101627.06
2022-12-19T02:41:53.345Z,101631.31
2022-12-19T02:44:29.459Z,101642.59
2022-12-19T02:46:58.681Z,101647.84
2022-12-19T02:49:30.938Z,101644.34
2022-12-19T02:52:09.250Z,101633.97
2022-12-19T02:54:36.037Z,101645.22
2022-12-19T02:57:46.713Z,101651.38
2022-12-19T03:00:18.952Z,101649.50
2022-12-19T03:03:35.053Z,101648.66
2022-12-19T03:06:08.927Z,101654.78
2022-12-19T03:08:44.271Z,101658.19
2022-12-19T03:11:16.170Z,101653.84
2022-12-19T03:14:01.081Z,101663.38
2022-12-19T03:16:28.267Z,101669.53
2022-12-19T03:18:56.172Z,101658.16
2022-12-19T03:21:36.895Z,101675.47
2022-12-19T03:24:04.780Z,101676.34
2022-12-19T03:26:37.630Z,101687.69
2022-12-19T03:29:12.332Z,101685.03
2022-12-19T03:31:40.740Z,101694.66
2022-12-19T03:34:44.275Z,101687.69
2022-12-19T03:37:17.949Z,101680.66
2022-12-19T03:39:49.754Z,101684.13
2022-12-19T03:42:35.815Z,101680.56
2022-12-19T03:45:06.419Z,101667.56
2022-12-19T03:47:48.546Z,101661.47
2022-12-19T03:50:15.617Z,101659.72
2022-12-19T03:52:52.543Z,101672.78
2022-12-19T03:55:26.742Z,101677.09
2022-12-19T03:57:57.987Z,101678.78
2022-12-19T04:00:25.786Z,101675.34
2022-12-19T04:02:55.774Z,101687.47
2022-12-19T04:05:25.991Z,101697.03
2022-12-19T04:07:56.292Z,101693.50
2022-12-19T04:10:25.775Z,101696.09
2022-12-19T04:12:58.594Z,101680.44
2022-12-19T04:15:34.844Z,101679.59
2022-12-19T04:18:05.483Z,101677.81
2022-12-19T04:20:33.645Z,101665.59
2022-12-19T04:23:15.484Z,101656.81
2022-12-19T04:25:48.108Z,101664.59
2022-12-19T04:28:22.976Z,101654.19
2022-12-19T04:30:50.126Z,101652.41
2022-12-19T04:33:16.645Z,101640.25
2022-12-19T04:35:43.435Z,101646.25
2022-12-19T04:38:09.883Z,101640.19
2022-12-19T04:40:40.846Z,101636.66
2022-12-19T04:43:08.398Z,101637.53
2022-12-19T04:45:34.960Z,101640.97
2022-12-19T04:48:02.344Z,101655.00
2022-12-19T04:50:28.841Z,101654.09
2022-12-19T04:52:57.212Z,101655.00
2022-12-19T04:55:23.899Z,101653.19
2022-12-19T04:57:50.380Z,101659.28
2022-12-19T05:00:17.025Z,101669.75
2022-12-19T05:02:43.673Z,101668.03
2022-12-19T05:05:10.307Z,101657.56
2022-12-19T05:07:36.748Z,101663.72
2022-12-19T05:10:04.216Z,101659.31
2022-12-19T05:12:30.693Z,101655.78
2022-12-19T05:14:57.179Z,101643.63
2022-12-19T05:17:23.607Z,101637.47
2022-12-19T05:19:50.180Z,101646.25
2022-12-19T05:22:16.631Z,101650.56
2022-12-19T05:24:43.087Z,101639.22
2022-12-19T05:27:09.541Z,101633.97
2022-12-19T05:29:36.007Z,101632.22
2022-12-19T05:32:02.431Z,101638.31
2022-12-19T05:34:29.136Z,101637.47
2022-12-19T05:36:55.833Z,101636.53
2022-12-19T05:39:22.603Z,101635.72
2022-12-19T05:41:49.449Z,101620.91
2022-12-19T05:44:16.760Z,101632.16
2022-12-19T05:46:43.303Z,101636.47
2022-12-19T05:49:09.810Z,101633.00
2022-12-19T05:51:36.273Z,101626.88
2022-12-19T05:54:02.801Z,101619.00
2022-12-19T05:56:29.251Z,101623.31
2022-12-19T05:58:55.953Z,101620.63
2022-12-19T06:01:25.413Z,101614.47
2022-12-19T06:03:53.470Z,101620.47
2022-12-19T06:06:22.831Z,101618.72
2022-12-19T06:08:53.955Z,101619.69
2022-12-19T06:11:20.601Z,101617.81
2022-12-19T06:13:47.100Z,101618.75
2022-12-19T06:16:16.043Z,101610.06
2022-12-19T06:18:45.168Z,101612.50
2022-12-19T06:21:15.529Z,101622.91
2022-12-19T06:23:42.771Z,101617.69
2022-12-19T06:26:17.108Z,101632.34
2022-12-19T06:28:45.839Z,101623.66
2022-12-19T06:31:12.820Z,101625.47
2022-12-19T06:33:39.317Z,101617.56
2022-12-19T06:36:13.728Z,101626.28
2022-12-19T06:38:40.460Z,101623.56
2022-12-19T06:41:25.488Z,101620.88
2022-12-19T06:43:53.841Z,101617.41
2022-12-19T06:46:20.878Z,101608.69
2022-12-19T06:48:47.565Z,101604.31
2022-12-19T06:51:13.998Z,101600.84
2022-12-19T06:53:40.427Z,101601.56
2022-12-19T06:56:08.692Z,101599.97
2022-12-19T06:58:35.687Z,101593.72
2022-12-19T07:01:02.263Z,101593.00
2022-12-19T07:03:41.185Z,101593.66
2022-12-19T07:06:07.898Z,101591.16
2022-12-19T07:08:34.497Z,101596.19
2022-12-19T07:11:01.565Z,101589.16
2022-12-19T07:13:28.156Z,101595.22
2022-12-19T07:15:58.410Z,101606.53
2022-12-19T07:18:24.945Z,101613.53
2022-12-19T07:20:51.838Z,101606.50
2022-12-19T07:23:21.338Z,101606.41
2022-12-19T07:25:47.889Z,101583.63
2022-12-19T07:28:16.003Z,101584.44
2022-12-19T07:30:42.493Z,101577.59
2022-12-19T07:33:11.158Z,101582.78
2022-12-19T07:35:38.333Z,101586.34
2022-12-19T07:38:06.327Z,101589.78
2022-12-19T07:40:34.248Z,101598.47
2022-12-19T07:43:05.610Z,101608.09
2022-12-19T07:45:32.967Z,101596.66
2022-12-19T07:48:04.768Z,101620.22
2022-12-19T07:50:31.959Z,101605.31
2022-12-19T07:52:58.979Z,101611.19
2022-12-19T07:55:26.338Z,101600.72
2022-12-19T07:57:53.722Z,101599.09
2022-12-19T08:00:20.407Z,101601.44
2022-12-19T08:02:47.955Z,101599.69
2022-12-19T08:05:15.038Z,101612.72
2022-12-19T08:07:41.532Z,101622.50
2022-12-19T08:10:08.912Z,101616.25
2022-12-19T08:12:35.439Z,101619.84
2022-12-19T08:15:01.966Z,101602.38
2022-12-19T08:17:28.444Z,101590.81
2022-12-19T08:19:54.932Z,101591.69
2022-12-19T08:22:21.379Z,101583.66
2022-12-19T08:24:47.871Z,101577.63
2022-12-19T08:27:16.611Z,101581.03
2022-12-19T08:29:43.072Z,101570.53
2022-12-19T08:32:09.523Z,101571.22
2022-12-19T08:34:35.984Z,101567.75
2022-12-19T08:37:02.437Z,101564.28
2022-12-19T08:39:28.889Z,101562.53
2022-12-19T08:41:55.341Z,101555.59
2022-12-19T08:44:21.889Z,101541.28
2022-12-19T08:46:50.518Z,101544.47
2022-12-19T08:49:18.498Z,101533.72
2022-12-19T08:51:45.521Z,101544.53
2022-12-19T08:54:12.241Z,101544.19
2022-12-19T08:56:42.168Z,101536.09
2022-12-19T08:59:15.857Z,101544.00
2022-12-19T09:01:50.463Z,101534.53
2022-12-19T09:06:00.192Z,101541.25
2022-12-19T09:07:04.032Z,101533.19
2022-12-19T09:09:30.458Z,101536.69
2022-12-19T09:11:56.894Z,101542.84
2022-12-19T09:14:23.387Z,101537.59
2022-12-19T09:16:49.901Z,101523.78
2022-12-19T09:19:16.897Z,101534.13
2022-12-19T09:21:44.113Z,101536.09
2022-12-19T09:24:11.205Z,101528.94
2022-12-19T09:26:42.268Z,101515.31
2022-12-19T09:29:20.799Z,101517.94
2022-12-19T09:31:51.294Z,101512.66
2022-12-19T09:34:24.023Z,101508.38
2022-12-19T09:36:52.028Z,101507.84
2022-12-19T09:39:18.522Z,101506.59
2022-12-19T09:42:06.026Z,101512.53
2022-12-19T09:44:59.134Z,101513.69
2022-12-19T09:47:30.684Z,101508.69
2022-12-19T09:49:58.538Z,101506.44
2022-12-19T09:52:41.304Z,101501.97
2022-12-19T09:55:25.895Z,101499.44
2022-12-19T09:58:19.725Z,101498.38
2022-12-19T10:00:58.624Z,101486.06
2022-12-19T10:03:45.187Z,101492.75
2022-12-19T10:06:53.631Z,101488.31
2022-12-19T10:10:34.040Z,101491.56
2022-12-19T10:12:44.662Z,101496.75
2022-12-19T10:15:26.466Z,101484.69
2022-12-19T10:18:12.238Z,101484.28
2022-12-19T10:20:45.574Z,101476.41
2022-12-19T10:23:41.797Z,101483.25
2022-12-19T10:26:23.358Z,101483.31
2022-12-19T10:29:15.570Z,101481.59
2022-12-19T10:32:04.250Z,101477.06
2022-12-19T10:34:40.765Z,101474.22
2022-12-19T10:37:26.547Z,101460.88
2022-12-19T10:40:31.590Z,101461.13
2022-12-19T10:43:40.801Z,101449.78
2022-12-19T10:46:22.247Z,101447.28
2022-12-19T10:48:51.444Z,101447.75
2022-12-19T10:51:28.548Z,101444.78
2022-12-19T10:54:00.139Z,101444.00
2022-12-19T10:56:36.738Z,101431.47
2022-12-19T10:59:04.842Z,101442.66
2022-12-19T11:01:39.018Z,101443.53
2022-12-19T11:04:24.362Z,101443.56
2022-12-19T11:07:00.816Z,101424.56
2022-12-19T11:09:35.979Z,101436.31
2022-12-19T11:15:31.784Z,101425.75
2022-12-19T11:19:55.130Z,101420.94
2022-12-19T11:24:12.922Z,101412.22
2022-12-19T11:29:41.736Z,101411.72
2022-12-19T11:29:54.652Z,101401.09
2022-12-19T11:30:06.583Z,101407.66
2022-12-19T11:32:42.943Z,101381.06
2022-12-19T11:35:25.431Z,101384.25
2022-12-19T11:38:06.039Z,101391.00
2022-12-19T11:40:53.440Z,101388.34
2022-12-19T11:43:48.488Z,101385.03
2022-12-19T11:46:37.531Z,101379.28
2022-12-19T11:49:10.141Z,101381.72
2022-12-19T11:51:52.466Z,101374.72
2022-12-19T11:54:41.909Z,101372.63
2022-12-19T11:57:12.645Z,101370.13
2022-12-19T11:59:40.504Z,101355.81
2022-12-19T12:02:10.410Z,101351.81
2022-12-19T12:05:05.104Z,101349.38
2022-12-19T12:08:08.853Z,101344.19
2022-12-19T12:14:07.973Z,101341.69
2022-12-19T12:24:11.525Z,101351.94
2022-12-19T12:27:24.199Z,101351.63
2022-12-19T12:31:17.767Z,101359.25
2022-12-19T12:31:38.460Z,101351.16
2022-12-19T12:32:03.752Z,101348.09
2022-12-19T12:32:04.828Z,101344.94
2022-12-19T12:35:54.551Z,101334.09
2022-12-19T12:38:24.823Z,101333.97
2022-12-19T12:41:09.545Z,101333.03
2022-12-19T12:43:54.199Z,101329.91
2022-12-19T12:46:26.434Z,101328.03
2022-12-19T12:48:58.576Z,101318.09
2022-12-19T12:51:26.069Z,101323.41
2022-12-19T12:54:01.406Z,101314.78
2022-12-19T12:56:28.015Z,101310.34
2022-12-19T12:58:55.332Z,101309.13
2022-12-19T13:05:18.699Z,101305.16
2022-12-19T13:07:53.679Z,101303.38
2022-12-19T13:10:26.642Z,101307.72
2022-12-19T13:13:24.238Z,101299.25
2022-12-19T13:15:54.667Z,101296.53
2022-12-19T13:18:37.786Z,101304.41
2022-12-19T13:21:24.810Z,101302.31
2022-12-19T13:24:33.245Z,101298.88
2022-12-19T13:32:15.529Z,101300.00
2022-12-19T13:35:27.128Z,101291.38
2022-12-19T13:39:54.620Z,101301.66
2022-12-19T13:40:43.892Z,101292.75
2022-12-19T13:43:37.529Z,101293.75
2022-12-19T13:46:17.985Z,101293.91
2022-12-19T13:48:47.948Z,101291.53
2022-12-19T13:51:14.827Z,101286.28
2022-12-19T13:53:43.185Z,101281.88
2022-12-19T13:56:15.407Z,101286.28
2022-12-19T13:58:50.362Z,101285.16
2022-12-19T14:01:36.607Z,101281.03
2022-12-19T14:17:05.346Z,101273.09
2022-12-19T14:19:39.154Z,101265.16
2022-12-19T14:22:20.826Z,101273.69
2022-12-19T14:28:14.431Z,101260.69
2022-12-19T14:28:21.386Z,101267.13
2022-12-19T14:30:53.159Z,101265.13
2022-12-19T14:33:45.142Z,101282.72
2022-12-19T14:36:29.246Z,101281.09
2022-12-19T14:39:24.282Z,101274.16
2022-12-19T14:42:08.065Z,101277.44
2022-12-19T14:54:01.797Z,101264.41
2022-12-19T14:54:03.492Z,101267.88
2022-12-19T14:54:05.591Z,101271.38
2022-12-19T14:54:28.083Z,101267.84
2022-12-19T14:59:22.521Z,101265.53
2022-12-19T15:01:55.627Z,101264.41
2022-12-19T15:04:52.575Z,101269.78
2022-12-19T15:07:21.214Z,101275.72
2022-12-19T15:11:07.926Z,101264.41
2022-12-19T15:14:50.736Z,101275.84
2022-12-19T15:16:01.079Z,101274.22
2022-12-19T15:18:27.908Z,101270.50
2022-12-19T15:20:59.085Z,101271.41
2022-12-19T15:23:26.108Z,101274.75
2022-12-19T15:26:09.016Z,101278.41
2022-12-19T15:28:43.053Z,101277.38
2022-12-19T15:31:27.187Z,101271.19
2022-12-19T15:34:32.494Z,101264.94
2022-12-19T15:36:40.590Z,101263.31
2022-12-19T15:39:07.032Z,101265.88
2022-12-19T15:41:33.807Z,101261.56
2022-12-19T15:44:06.745Z,101258.06
2022-12-19T15:46:34.447Z,101258.88
2022-12-19T15:49:01.749Z,101248.28
2022-12-19T15:51:28.206Z,101249.91
2022-12-19T15:54:09.060Z,101258.59
2022-12-19T15:56:46.683Z,101239.47
2022-12-19T15:59:19.801Z,101251.72
2022-12-19T16:01:46.469Z,101249.19
2022-12-19T16:04:13.720Z,101255.84
2022-12-19T16:06:40.278Z,101254.44
2022-12-19T16:09:19.638Z,101242.97
2022-12-19T16:11:46.360Z,101234.94
2022-12-19T16:14:13.137Z,101240.06
2022-12-19T16:16:39.992Z,101229.34
2022-12-19T16:19:27.742Z,101232.34
2022-12-19T16:21:54.844Z,101229.47
2022-12-19T16:24:21.930Z,101229.47
2022-12-19T16:26:58.537Z,101238.19
2022-12-19T16:29:31.164Z,101241.00
2022-12-19T16:31:57.663Z,101225.53
2022-12-19T16:34:24.963Z,101230.50
2022-12-19T16:36:51.923Z,101225.84
2022-12-19T16:39:18.716Z,101233.88
2022-12-19T16:41:45.516Z,101231.03
2022-12-19T16:44:23.750Z,101224.44
2022-12-19T16:46:51.616Z,101231.09
2022-12-19T16:49:22.822Z,101231.09
2022-12-19T16:51:49.654Z,101230.53
2022-12-19T16:54:17.331Z,101235.78
2022-12-19T16:56:52.763Z,101229.34
2022-12-19T16:59:24.387Z,101227.69
2022-12-19T17:01:51.421Z,101227.69
2022-12-19T17:04:21.563Z,101229.41
2022-12-19T17:06:49.862Z,101224.16
2022-12-19T17:09:18.629Z,101225.19
2022-12-19T17:11:48.939Z,101218.84
2022-12-19T17:14:20.673Z,101225.59
2022-12-19T17:16:47.596Z,101232.78
2022-12-19T17:19:21.135Z,101223.94
2022-12-19T17:21:48.605Z,101219.66
2022-12-19T17:24:15.725Z,101224.13
2022-12-19T17:26:43.543Z,101214.16
2022-12-19T17:29:11.232Z,101220.09
2022-12-19T17:31:39.753Z,101230.53
2022-12-19T17:34:31.255Z,101214.41
2022-12-19T17:36:59.797Z,101225.16
2022-12-19T17:39:31.625Z,101222.28
2022-12-19T17:42:09.773Z,101226.66
2022-12-19T17:44:36.136Z,101229.91
2022-12-19T17:47:04.094Z,101234.41
2022-12-19T17:49:31.602Z,101226.47
2022-12-19T17:51:59.468Z,101224.94
2022-12-19T17:54:26.807Z,101215.28
2022-12-19T17:56:53.342Z,101212.88
2022-12-19T17:59:19.982Z,101213.72
2022-12-19T18:01:47.225Z,101213.53
2022-12-19T18:04:16.311Z,101217.44
2022-12-19T18:06:42.780Z,101222.22
2022-12-19T18:09:22.346Z,101230.31
2022-12-19T18:11:50.049Z,101234.41
2022-12-19T18:14:16.666Z,101231.84
2022-12-19T18:16:44.709Z,101234.53
2022-12-19T18:19:18.563Z,101237.03
2022-12-19T18:21:48.274Z,101231.84
2022-12-19T18:24:16.669Z,101235.50
2022-12-19T18:26:44.332Z,101241.50
2022-12-19T18:29:11.304Z,101220.53
2022-12-19T18:31:38.917Z,101217.84
2022-12-19T18:34:08.188Z,101216.16
2022-12-19T18:36:40.204Z,101238.72
2022-12-19T18:39:17.494Z,101230.88
2022-12-19T18:41:43.942Z,101235.38
2022-12-19T18:44:10.364Z,101233.38
2022-12-19T18:46:38.416Z,101237.03
2022-12-19T18:49:05.005Z,101224.75
2022-12-19T18:51:31.526Z,101221.13
2022-12-19T18:53:58.307Z,101203.91
2022-12-19T18:56:24.749Z,101198.63
2022-12-19T18:58:51.194Z,101194.88
2022-12-19T19:01:21.497Z,101187.84
2022-12-19T19:03:56.717Z,101184.25
2022-12-19T19:06:27.310Z,101179.44
2022-12-19T19:08:56.395Z,101168.75
2022-12-19T19:11:45.922Z,101174.69
2022-12-19T19:14:12.411Z,101191.22
2022-12-19T19:16:39.848Z,101200.81
2022-12-19T19:19:10.533Z,101199.22
2022-12-19T19:21:37.803Z,101201.75
2022-12-19T19:24:07.821Z,101191.03
2022-12-19T19:26:34.296Z,101183.22
2022-12-19T19:29:00.739Z,101162.19
2022-12-19T19:31:30.091Z,101179.78
2022-12-19T19:34:03.484Z,101180.72
2022-12-19T19:36:32.736Z,101171.09
2022-12-19T19:39:04.341Z,101159.69
2022-12-19T19:41:32.864Z,101157.22
2022-12-19T19:44:00.113Z,101149.91
2022-12-19T19:46:28.033Z,101157.78
2022-12-19T19:48:55.214Z,101160.59
2022-12-19T19:51:21.717Z,101137.88
2022-12-19T19:53:48.147Z,101138.81
2022-12-19T19:56:14.621Z,101132.69
2022-12-19T19:58:41.281Z,101123.72
2022-12-19T20:01:11.651Z,101131.38
2022-12-19T20:03:39.991Z,101126.63
2022-12-19T20:06:07.122Z,101130.56
2022-12-19T20:08:39.131Z,101130.50
2022-12-19T20:11:06.798Z,101116.53
2022-12-19T20:13:33.846Z,101113.16
2022-12-19T20:16:12.423Z,101112.00
2022-12-19T20:18:40.145Z,101124.56
2022-12-19T20:21:13.581Z,101119.25
2022-12-19T20:23:42.432Z,101124.50
2022-12-19T20:26:09.639Z,101119.00
2022-12-19T20:28:37.815Z,101111.13
2022-12-19T20:31:06.281Z,101101.66
2022-12-19T20:50:53.017Z,101105.38
2022-12-19T20:57:47.310Z,101110.41
2022-12-19T21:00:19.369Z,101105.00
2022-12-19T21:06:13.579Z,101090.25
2022-12-19T21:09:31.931Z,101103.41
2022-12-19T21:11:47.558Z,101110.34
2022-12-19T21:14:35.543Z,101125.25
2022-12-19T21:17:02.186Z,101127.19
2022-12-19T21:19:42.755Z,101133.31
2022-12-19T21:22:12.391Z,101144.00
2022-12-19T21:24:39.051Z,101134.28
2022-12-19T21:27:05.720Z,101144.06
2022-12-19T21:29:32.337Z,101122.81
2022-12-19T21:31:58.924Z,101122.00
2022-12-19T21:34:25.531Z,101113.03
2022-12-19T21:39:48.040Z,101118.41
2022-12-19T21:42:14.499Z,101108.00
2022-12-19T21:44:41.019Z,101100.34
2022-12-19T21:47:07.611Z,101103.78
2022-12-19T21:49:34.172Z,101124.94
2022-12-19T21:52:00.628Z,101129.16
2022-12-19T21:54:27.064Z,101124.56
2022-12-19T21:56:53.538Z,101124.81
2022-12-19T21:59:19.948Z,101119.63
2022-12-19T22:01:46.615Z,101126.47
2022-12-19T22:04:17.695Z,101122.97
2022-12-19T22:06:44.399Z,101124.75
2022-12-19T22:09:13.897Z,101124.72
2022-12-19T22:11:40.788Z,101120.34
2022-12-19T22:14:07.747Z,101123.03
2022-12-19T22:16:35.345Z,101114.13
2022-12-19T22:19:02.287Z,101116.94
2022-12-19T22:21:28.775Z,101132.75
2022-12-19T22:23:59.544Z,101137.72
2022-12-19T22:26:27.739Z,101141.44
2022-12-19T22:28:55.853Z,101139.72
2022-12-19T22:31:31.935Z,101146.00
2022-12-19T22:34:10.221Z,101136.28
2022-12-19T22:36:38.679Z,101140.75
2022-12-19T22:39:08.233Z,101146.00
2022-12-19T22:41:35.984Z,101148.41
2022-12-19T22:44:03.099Z,101143.16
2022-12-19T22:46:33.169Z,101156.47
2022-12-19T22:49:02.150Z,101152.94
2022-12-19T22:51:30.056Z,101151.25
2022-12-19T22:53:57.535Z,101147.00
2022-12-19T22:56:26.749Z,101161.22
2022-12-19T22:58:55.388Z,101148.84
2022-12-19T23:01:29.929Z,101143.56
2022-12-19T23:03:58.775Z,101140.97
2022-12-19T23:06:27.760Z,101141.09
2022-12-19T23:08:54.509Z,101132.13
2022-12-19T23:11:24.582Z,101136.59
2022-12-19T23:13:51.365Z,101137.38
2022-12-19T23:16:18.217Z,101133.34
2022-12-19T23:18:45.107Z,101125.34
2022-12-19T23:21:18.543Z,101118.38
2022-12-19T23:23:46.444Z,101110.50
2022-12-19T23:26:19.128Z,101122.84
2022-12-19T23:28:54.600Z,101124.47
2022-12-19T23:31:21.464Z,101120.16
2022-12-19T23:33:48.002Z,101111.56
2022-12-19T23:36:14.625Z,101121.03
2022-12-19T23:38:43.255Z,101108.69
2022-12-19T23:41:12.144Z,101097.38
2022-12-19T23:43:39.263Z,101107.09
2022-12-19T23:46:14.585Z,101108.84
2022-12-19T23:48:41.966Z,101104.38
2022-12-19T23:51:12.245Z,101104.44
2022-12-19T23:53:38.769Z,101099.19
2022-12-19T23:56:11.013Z,101105.41
2022-12-19T23:58:37.537Z,101096.59
